Time;durP1;ratioP1;P1;durP2;ratioP2;P2;SDS_P1;SDS_P2;PMS_P1;PMS_P2;Temp;Humidity;BMP_temperature;BMP_pressure;BME280_temperature;BME280_humidity;BME280_pressure;Samples;Min_cycle;Max_cycle;Signal;HPM_P1;HPM_P2
2021/07/11 00:00:56;;;;;;;3.08;1.40;;;;;;;;;;5046297;28;20031;-76
2021/07/11 00:03:22;;;;;;;3.50;1.30;;;;;;;;;;5045023;28;20540;-76
2021/07/11 00:05:47;;;;;;;5.03;1.60;;;;;;;;;;5048562;28;20071;-77
2021/07/11 00:08:12;;;;;;;5.38;1.50;;;;;;;;;;5053378;28;20041;-77
2021/07/11 00:10:38;;;;;;;4.45;1.75;;;;;;;;;;5036030;28;20358;-77
2021/07/11 00:13:07;;;;;;;3.47;1.50;;;;;;;;;;5047370;28;20172;-76
2021/07/11 00:15:32;;;;;;;3.88;1.60;;;;;;;;;;5052103;28;20025;-77
2021/07/11 00:18:00;;;;;;;2.97;1.48;;;;;;;;;;5036393;28;20393;-77
2021/07/11 00:20:26;;;;;;;3.10;1.55;;;;;;;;;;5035265;28;20481;-77
2021/07/11 00:22:52;;;;;;;2.35;1.50;;;;;;;;;;5033883;28;20048;-76
2021/07/11 00:25:17;;;;;;;3.13;1.20;;;;;;;;;;5034754;28;20113;-77
2021/07/11 00:27:45;;;;;;;3.70;1.67;;;;;;;;;;5033814;28;20033;-77
2021/07/11 00:30:11;;;;;;;2.65;1.42;;;;;;;;;;5034698;28;20373;-76
2021/07/11 00:32:38;;;;;;;4.38;1.60;;;;;;;;;;5044928;28;20025;-76
2021/07/11 00:35:03;;;;;;;4.05;1.80;;;;;;;;;;5050441;28;20112;-77
2021/07/11 00:37:29;;;;;;;5.80;1.70;;;;;;;;;;5053395;28;20114;-77
2021/07/11 00:39:54;;;;;;;2.95;1.70;;;;;;;;;;5036345;28;20035;-76
2021/07/11 00:42:20;;;;;;;3.00;1.30;;;;;;;;;;5052981;28;20028;-77
2021/07/11 00:44:45;;;;;;;4.32;1.67;;;;;;;;;;5053550;28;20396;-76
2021/07/11 00:47:11;;;;;;;2.10;1.40;;;;;;;;;;5053174;28;20104;-77
2021/07/11 00:49:38;;;;;;;2.83;1.45;;;;;;;;;;5052626;28;20442;-76
2021/07/11 00:52:04;;;;;;;2.70;1.60;;;;;;;;;;5046323;28;20029;-77
2021/07/11 00:54:29;;;;;;;3.63;1.58;;;;;;;;;;5043600;28;20017;-76
2021/07/11 00:56:55;;;;;;;3.05;1.25;;;;;;;;;;5034304;28;20021;-76
2021/07/11 00:59:22;;;;;;;4.38;1.42;;;;;;;;;;5053613;28;20099;-77
2021/07/11 01:02:07;;;;;;;2.75;1.48;;;;;;;;;;5052829;28;20024;-77
2021/07/11 01:04:38;;;;;;;3.03;1.48;;;;;;;;;;5045484;28;20036;-77
2021/07/11 01:07:08;;;;;;;6.07;1.42;;;;;;;;;;5039710;28;20388;-77
2021/07/11 01:09:38;;;;;;;3.42;1.50;;;;;;;;;;5033119;28;20044;-77
2021/07/11 01:12:08;;;;;;;3.08;1.60;;;;;;;;;;5040471;28;20393;-77
2021/07/11 01:14:35;;;;;;;4.03;1.50;;;;;;;;;;5052201;28;20031;-76
2021/07/11 01:17:04;;;;;;;3.40;1.70;;;;;;;;;;5052858;28;20163;-76
2021/07/11 01:19:51;;;;;;;3.22;1.80;;;;;;;;;;5049795;28;20124;-76
2021/07/11 01:22:19;;;;;;;4.45;1.65;;;;;;;;;;5035975;28;20022;-77
2021/07/11 01:25:00;;;;;;;2.70;1.65;;;;;;;;;;5034174;28;20029;-76
2021/07/11 01:27:28;;;;;;;5.75;1.90;;;;;;;;;;5046367;28;21331;-76
2021/07/11 01:29:55;;;;;;;4.88;2.60;;;;;;;;;;5032675;28;20017;-76
2021/07/11 01:32:21;;;;;;;5.82;2.38;;;;;;;;;;5032438;28;20072;-76
2021/07/11 01:34:48;;;;;;;8.27;2.20;;;;;;;;;;5039198;28;20064;-77
2021/07/11 01:37:16;;;;;;;4.25;2.22;;;;;;;;;;5035853;28;20036;-77
2021/07/11 01:39:42;;;;;;;5.38;2.15;;;;;;;;;;5032387;28;20029;-77
2021/07/11 01:42:08;;;;;;;3.30;2.03;;;;;;;;;;5040235;28;20116;-77
2021/07/11 01:44:36;;;;;;;2.92;2.10;;;;;;;;;;5052353;28;20036;-76
2021/07/11 01:47:03;;;;;;;3.47;2.05;;;;;;;;;;5051427;28;20021;-76
2021/07/11 01:49:30;;;;;;;4.38;2.00;;;;;;;;;;5048939;28;20085;-77
2021/07/11 01:51:56;;;;;;;3.88;2.13;;;;;;;;;;5049352;28;20541;-78
2021/07/11 01:54:22;;;;;;;3.95;2.33;;;;;;;;;;5052060;28;20033;-77
2021/07/11 01:56:47;;;;;;;3.20;1.67;;;;;;;;;;5052263;28;20024;-77
2021/07/11 01:59:13;;;;;;;3.92;2.08;;;;;;;;;;5051470;28;20067;-76
2021/07/11 02:01:39;;;;;;;3.63;2.00;;;;;;;;;;5052260;28;20104;-76
2021/07/11 02:04:04;;;;;;;2.42;1.85;;;;;;;;;;5051987;28;20025;-76
2021/07/11 02:06:30;;;;;;;3.03;2.00;;;;;;;;;;5045705;28;20473;-77
2021/07/11 02:08:55;;;;;;;5.57;1.92;;;;;;;;;;5051851;28;20033;-76
2021/07/11 02:11:22;;;;;;;5.05;2.55;;;;;;;;;;5049147;28;20025;-77
2021/07/11 02:13:52;;;;;;;4.25;2.00;;;;;;;;;;5051725;28;20025;-76
2021/07/11 02:16:30;;;;;;;3.28;2.22;;;;;;;;;;5043358;28;20022;-76
2021/07/11 02:18:58;;;;;;;5.15;2.42;;;;;;;;;;5031852;28;20021;-76
2021/07/11 02:21:26;;;;;;;6.78;2.13;;;;;;;;;;5046189;28;20074;-77
2021/07/11 02:23:52;;;;;;;3.38;2.33;;;;;;;;;;5023253;28;20452;-77
2021/07/11 02:26:20;;;;;;;5.72;2.25;;;;;;;;;;5031388;28;20030;-76
2021/07/11 02:28:49;;;;;;;3.42;2.22;;;;;;;;;;5032815;28;20025;-76
2021/07/11 02:31:15;;;;;;;3.85;2.50;;;;;;;;;;5049166;28;20024;-76
2021/07/11 02:33:42;;;;;;;5.70;2.25;;;;;;;;;;5031636;28;20024;-76
2021/07/11 02:36:20;;;;;;;3.17;2.22;;;;;;;;;;5042864;28;20029;-77
2021/07/11 02:38:51;;;;;;;2.92;2.10;;;;;;;;;;5051505;28;20427;-77
2021/07/11 02:41:18;;;;;;;4.80;2.30;;;;;;;;;;5050372;28;20028;-77
2021/07/11 02:43:46;;;;;;;5.07;2.40;;;;;;;;;;5051335;28;20454;-77
2021/07/11 02:46:17;;;;;;;3.40;2.25;;;;;;;;;;5050986;28;20103;-77
2021/07/11 02:48:44;;;;;;;2.85;2.22;;;;;;;;;;5042540;28;20032;-77
2021/07/11 02:51:16;;;;;;;4.30;2.38;;;;;;;;;;5044949;28;20028;-77
2021/07/11 02:53:44;;;;;;;3.83;2.25;;;;;;;;;;5051193;28;20029;-76
2021/07/11 02:56:13;;;;;;;6.65;2.50;;;;;;;;;;5050590;28;20488;-77
2021/07/11 02:58:40;;;;;;;4.50;2.08;;;;;;;;;;5050988;28;20039;-76
2021/07/11 03:01:06;;;;;;;3.90;2.50;;;;;;;;;;5050775;28;20021;-76
2021/07/11 03:03:34;;;;;;;3.30;2.40;;;;;;;;;;5039031;28;20026;-77
2021/07/11 03:05:59;;;;;;;5.32;2.70;;;;;;;;;;5036276;28;20060;-76
2021/07/11 03:08:26;;;;;;;4.88;2.60;;;;;;;;;;5047130;28;20123;-77
2021/07/11 03:10:52;;;;;;;5.13;2.58;;;;;;;;;;5034676;28;20100;-77
2021/07/11 03:13:19;;;;;;;4.20;2.58;;;;;;;;;;5046841;28;20131;-76
2021/07/11 03:15:45;;;;;;;4.63;2.65;;;;;;;;;;5054280;28;20037;-77
2021/07/11 03:18:11;;;;;;;5.43;2.60;;;;;;;;;;5050637;28;20029;-76
2021/07/11 03:20:37;;;;;;;4.72;2.85;;;;;;;;;;5059230;28;20021;-76
2021/07/11 03:23:03;;;;;;;7.18;2.83;;;;;;;;;;5059873;28;20040;-76
2021/07/11 03:25:29;;;;;;;5.25;3.22;;;;;;;;;;5050489;28;20480;-76
2021/07/11 03:27:56;;;;;;;4.35;3.00;;;;;;;;;;5065302;28;20493;-76
2021/07/11 03:30:22;;;;;;;5.25;2.92;;;;;;;;;;5070782;28;20484;-77
2021/07/11 03:32:52;;;;;;;3.28;2.92;;;;;;;;;;5074830;28;20109;-76
2021/07/11 03:35:22;;;;;;;5.47;3.30;;;;;;;;;;5074422;28;20079;-76
2021/07/11 03:37:49;;;;;;;3.83;3.40;;;;;;;;;;5071905;28;21338;-77
2021/07/11 03:40:19;;;;;;;5.78;3.67;;;;;;;;;;5047553;28;20098;-76
2021/07/11 03:42:48;;;;;;;6.95;3.60;;;;;;;;;;5072697;28;20056;-77
2021/07/11 03:45:14;;;;;;;8.77;3.50;;;;;;;;;;5054300;28;20027;-76
2021/07/11 03:47:47;;;;;;;4.82;4.03;;;;;;;;;;5054774;28;20100;-77
2021/07/11 03:50:14;;;;;;;4.88;3.58;;;;;;;;;;5054471;28;20319;-76
2021/07/11 03:52:47;;;;;;;6.40;4.18;;;;;;;;;;5056534;28;20033;-76
2021/07/11 03:55:14;;;;;;;5.13;3.80;;;;;;;;;;5074779;28;20058;-76
2021/07/11 03:57:43;;;;;;;6.53;4.20;;;;;;;;;;5074479;28;20032;-75
2021/07/11 04:00:09;;;;;;;5.82;3.90;;;;;;;;;;5060902;28;20028;-76
2021/07/11 04:02:37;;;;;;;6.28;3.75;;;;;;;;;;5054272;28;20384;-76
2021/07/11 04:05:04;;;;;;;5.88;3.53;;;;;;;;;;5062771;28;20065;-76
2021/07/11 04:07:32;;;;;;;5.20;3.83;;;;;;;;;;5053734;28;20033;-77
2021/07/11 04:09:59;;;;;;;8.40;3.80;;;;;;;;;;5062088;28;20078;-77
2021/07/11 04:12:25;;;;;;;7.15;4.32;;;;;;;;;;5062187;28;20223;-77
2021/07/11 04:14:51;;;;;;;6.32;4.07;;;;;;;;;;5051016;28;20044;-77
2021/07/11 04:17:20;;;;;;;6.75;4.00;;;;;;;;;;5057289;28;20072;-76
2021/07/11 04:19:47;;;;;;;4.70;3.67;;;;;;;;;;5070364;28;20029;-77
2021/07/11 04:22:15;;;;;;;7.40;3.58;;;;;;;;;;5060056;28;20487;-76
2021/07/11 04:24:43;;;;;;;6.38;3.70;;;;;;;;;;5059725;28;20460;-76
2021/07/11 04:27:10;;;;;;;5.07;3.53;;;;;;;;;;5071346;28;20143;-76
2021/07/11 04:29:36;;;;;;;5.32;3.20;;;;;;;;;;5054018;28;20443;-76
2021/07/11 04:32:03;;;;;;;5.70;3.40;;;;;;;;;;5072795;28;20025;-76
2021/07/11 04:34:33;;;;;;;6.93;3.45;;;;;;;;;;5073705;28;20474;-76
2021/07/11 04:37:04;;;;;;;5.18;3.20;;;;;;;;;;5072465;28;20017;-76
2021/07/11 04:39:33;;;;;;;4.53;3.60;;;;;;;;;;5058386;28;20388;-76
2021/07/11 04:41:59;;;;;;;5.70;3.17;;;;;;;;;;5053479;28;20024;-77
2021/07/11 04:44:26;;;;;;;4.90;3.08;;;;;;;;;;5052870;28;20504;-76
2021/07/11 04:46:51;;;;;;;5.85;3.53;;;;;;;;;;5054604;28;20100;-76
2021/07/11 04:49:17;;;;;;;4.47;3.25;;;;;;;;;;5053083;28;20128;-77
2021/07/11 04:51:43;;;;;;;4.10;3.20;;;;;;;;;;5065288;28;20392;-76
2021/07/11 04:54:09;;;;;;;5.90;3.20;;;;;;;;;;5072846;28;20027;-76
2021/07/11 04:56:36;;;;;;;5.50;3.10;;;;;;;;;;5073258;28;20032;-76
2021/07/11 04:59:03;;;;;;;4.60;3.30;;;;;;;;;;5073654;28;20495;-76
2021/07/11 05:01:29;;;;;;;6.00;3.25;;;;;;;;;;5072448;28;20037;-76
2021/07/11 05:03:54;;;;;;;5.50;3.10;;;;;;;;;;5073074;28;20498;-77
2021/07/11 05:06:21;;;;;;;5.05;3.38;;;;;;;;;;5070469;28;20028;-77
2021/07/11 05:08:47;;;;;;;7.05;3.30;;;;;;;;;;5053043;28;20036;-77
2021/07/11 05:11:12;;;;;;;4.85;3.45;;;;;;;;;;5054289;28;20029;-77
2021/07/11 05:13:38;;;;;;;4.00;3.25;;;;;;;;;;5052863;28;20041;-77
2021/07/11 05:16:06;;;;;;;4.40;3.13;;;;;;;;;;5055233;28;20036;-76
2021/07/11 05:18:32;;;;;;;6.10;3.42;;;;;;;;;;5072682;28;20380;-76
2021/07/11 05:20:57;;;;;;;5.75;3.38;;;;;;;;;;5072304;28;20028;-77
2021/07/11 05:23:23;;;;;;;4.72;2.88;;;;;;;;;;5071967;28;20036;-77
2021/07/11 05:25:49;;;;;;;5.70;3.33;;;;;;;;;;5056770;28;20538;-76
2021/07/11 05:28:14;;;;;;;4.90;3.22;;;;;;;;;;5052801;28;20075;-76
2021/07/11 05:30:40;;;;;;;7.43;3.55;;;;;;;;;;5053673;28;20024;-76
2021/07/11 05:33:06;;;;;;;4.53;3.30;;;;;;;;;;5057372;28;20024;-76
2021/07/11 05:35:32;;;;;;;7.97;3.83;;;;;;;;;;5062629;28;20024;-76
2021/07/11 05:37:57;;;;;;;8.23;4.60;;;;;;;;;;5053262;28;20025;-77
2021/07/11 05:40:23;;;;;;;5.30;3.83;;;;;;;;;;5053699;28;20028;-76
2021/07/11 05:42:49;;;;;;;6.15;3.78;;;;;;;;;;5052735;28;20496;-77
2021/07/11 05:45:15;;;;;;;6.18;3.70;;;;;;;;;;5053008;28;20024;-76
2021/07/11 05:47:41;;;;;;;5.95;3.67;;;;;;;;;;5052415;28;20440;-77
2021/07/11 05:50:08;;;;;;;6.45;3.55;;;;;;;;;;5055153;28;20020;-76
2021/07/11 05:52:33;;;;;;;6.43;3.80;;;;;;;;;;5071718;28;20494;-76
2021/07/11 05:54:59;;;;;;;5.40;3.85;;;;;;;;;;5069675;28;20108;-76
2021/07/11 05:57:27;;;;;;;5.22;3.72;;;;;;;;;;5069930;28;20353;-77
2021/07/11 05:59:54;;;;;;;7.72;3.40;;;;;;;;;;5052254;28;20158;-76
2021/07/11 06:02:19;;;;;;;7.18;4.00;;;;;;;;;;5053755;28;20037;-77
2021/07/11 06:04:45;;;;;;;5.07;3.35;;;;;;;;;;5054277;28;20028;-76
2021/07/11 06:07:10;;;;;;;4.53;3.40;;;;;;;;;;5071661;28;20472;-77
2021/07/11 06:09:35;;;;;;;5.03;3.50;;;;;;;;;;5053775;28;20129;-77
2021/07/11 06:12:01;;;;;;;5.47;3.28;;;;;;;;;;5056442;28;20132;-77
2021/07/11 06:14:26;;;;;;;5.55;3.60;;;;;;;;;;5051862;28;20047;-76
2021/07/11 06:16:52;;;;;;;4.88;3.45;;;;;;;;;;5052981;28;20419;-77
2021/07/11 06:19:18;;;;;;;6.97;3.72;;;;;;;;;;5051879;28;20427;-76
2021/07/11 06:21:43;;;;;;;6.32;3.65;;;;;;;;;;5051342;28;20056;-77
2021/07/11 06:24:09;;;;;;;6.20;3.88;;;;;;;;;;5051524;28;20032;-76
2021/07/11 06:26:35;;;;;;;4.65;3.50;;;;;;;;;;5052309;28;20025;-76
2021/07/11 06:29:00;;;;;;;4.25;3.42;;;;;;;;;;5051418;28;20025;-76
2021/07/11 06:31:26;;;;;;;4.47;3.20;;;;;;;;;;5052473;28;20036;-77
2021/07/11 06:33:51;;;;;;;4.90;3.38;;;;;;;;;;5070011;28;20383;-77
2021/07/11 06:36:17;;;;;;;6.30;3.38;;;;;;;;;;5070808;28;20077;-76
2021/07/11 06:38:42;;;;;;;4.10;3.45;;;;;;;;;;5060765;28;20029;-77
2021/07/11 06:41:08;;;;;;;6.82;3.33;;;;;;;;;;5052793;28;20135;-77
2021/07/11 06:43:33;;;;;;;5.25;3.70;;;;;;;;;;5051060;28;20162;-77
2021/07/11 06:45:59;;;;;;;4.63;3.30;;;;;;;;;;5055027;28;20028;-76
2021/07/11 06:48:24;;;;;;;5.80;3.53;;;;;;;;;;5071385;28;20027;-76
2021/07/11 06:50:50;;;;;;;6.25;3.70;;;;;;;;;;5071551;28;20024;-78
2021/07/11 06:53:15;;;;;;;6.47;3.55;;;;;;;;;;5071860;28;20032;-77
2021/07/11 06:55:41;;;;;;;4.50;3.53;;;;;;;;;;5069498;28;20036;-76
2021/07/11 06:58:06;;;;;;;6.63;3.42;;;;;;;;;;5069891;28;20020;-76
2021/07/11 07:00:32;;;;;;;5.05;3.65;;;;;;;;;;5068221;28;20400;-76
2021/07/11 07:02:58;;;;;;;5.40;3.20;;;;;;;;;;5070568;28;20029;-76
2021/07/11 07:05:25;;;;;;;5.55;3.40;;;;;;;;;;5070312;28;20028;-76
2021/07/11 07:07:51;;;;;;;6.25;3.80;;;;;;;;;;5053214;28;20025;-76
2021/07/11 07:10:17;;;;;;;6.00;3.80;;;;;;;;;;5050993;28;20032;-76
2021/07/11 07:12:45;;;;;;;6.18;3.55;;;;;;;;;;5051465;28;20044;-76
2021/07/11 07:15:12;;;;;;;4.93;3.25;;;;;;;;;;5065637;28;20392;-76
2021/07/11 07:17:38;;;;;;;4.78;3.33;;;;;;;;;;5070857;28;20021;-77
2021/07/11 07:20:07;;;;;;;5.47;3.42;;;;;;;;;;5070089;28;20054;-77
2021/07/11 07:22:34;;;;;;;4.18;3.25;;;;;;;;;;5066188;28;20383;-77
2021/07/11 07:25:01;;;;;;;4.05;3.10;;;;;;;;;;5069333;28;20017;-77
2021/07/11 07:27:26;;;;;;;4.55;3.33;;;;;;;;;;5049184;28;20373;-76
2021/07/11 07:29:52;;;;;;;6.05;3.28;;;;;;;;;;5052430;28;20108;-75
2021/07/11 07:32:17;;;;;;;6.18;3.35;;;;;;;;;;5051801;28;20027;-76
2021/07/11 07:34:42;;;;;;;5.53;3.40;;;;;;;;;;5050664;28;20051;-77
2021/07/11 07:37:08;;;;;;;6.00;3.33;;;;;;;;;;5050638;28;20099;-76
2021/07/11 07:39:34;;;;;;;6.00;3.35;;;;;;;;;;5062485;28;20024;-76
2021/07/11 07:42:00;;;;;;;4.22;3.08;;;;;;;;;;5063969;28;20071;-76
2021/07/11 07:44:25;;;;;;;4.55;2.80;;;;;;;;;;5059130;28;20031;-76
2021/07/11 07:46:51;;;;;;;8.23;3.22;;;;;;;;;;5070493;28;20033;-75
2021/07/11 07:49:17;;;;;;;4.63;3.00;;;;;;;;;;5070774;28;20025;-76
2021/07/11 07:51:42;;;;;;;8.35;3.47;;;;;;;;;;5068471;28;20039;-76
2021/07/11 07:54:08;;;;;;;5.15;3.20;;;;;;;;;;5068707;28;20028;-76
2021/07/11 07:56:34;;;;;;;5.07;3.20;;;;;;;;;;5056864;28;20021;-76
2021/07/11 07:58:59;;;;;;;4.95;2.85;;;;;;;;;;5061002;28;20021;-77
2021/07/11 08:01:26;;;;;;;4.65;3.28;;;;;;;;;;5058977;28;20052;-76
2021/07/11 08:03:51;;;;;;;5.25;2.80;;;;;;;;;;5059446;28;20037;-76
2021/07/11 08:06:17;;;;;;;6.47;3.25;;;;;;;;;;5061185;28;20023;-77
2021/07/11 08:08:42;;;;;;;5.97;2.90;;;;;;;;;;5059172;28;20033;-76
2021/07/11 08:11:08;;;;;;;5.20;3.08;;;;;;;;;;5054257;28;20032;-78
2021/07/11 08:13:37;;;;;;;6.80;3.13;;;;;;;;;;5053311;28;20064;-77
2021/07/11 08:16:06;;;;;;;7.55;3.20;;;;;;;;;;5054336;28;20239;-76
2021/07/11 08:18:32;;;;;;;5.03;3.45;;;;;;;;;;5063786;28;20357;-76
2021/07/11 08:21:00;;;;;;;6.82;3.50;;;;;;;;;;5063916;28;20103;-77
2021/07/11 08:23:25;;;;;;;8.30;3.17;;;;;;;;;;5064166;28;20075;-77
2021/07/11 08:25:51;;;;;;;4.47;2.92;;;;;;;;;;5064892;28;20036;-77
2021/07/11 08:28:17;;;;;;;6.22;3.55;;;;;;;;;;5059688;28;20093;-77
2021/07/11 08:30:43;;;;;;;4.75;2.78;;;;;;;;;;5060678;28;20060;-76
2021/07/11 08:33:09;;;;;;;4.53;3.10;;;;;;;;;;5071792;28;20032;-76
2021/07/11 08:35:34;;;;;;;8.02;3.45;;;;;;;;;;5070130;28;20452;-76
2021/07/11 08:38:00;;;;;;;8.40;3.10;;;;;;;;;;5064631;28;20057;-77
2021/07/11 08:40:32;;;;;;;7.18;2.70;;;;;;;;;;5069094;28;20021;-77
2021/07/11 08:43:00;;;;;;;5.60;2.80;;;;;;;;;;5073046;28;20077;-77
2021/07/11 08:45:26;;;;;;;5.53;3.20;;;;;;;;;;5070002;28;20383;-77
2021/07/11 08:47:52;;;;;;;7.85;3.35;;;;;;;;;;5065011;28;20035;-76
2021/07/11 08:50:18;;;;;;;6.35;3.25;;;;;;;;;;5071588;28;20024;-76
2021/07/11 08:52:46;;;;;;;8.18;3.53;;;;;;;;;;5068674;28;20028;-77
2021/07/11 08:55:30;;;;;;;6.18;3.00;;;;;;;;;;5067349;28;20036;-77
2021/07/11 08:58:00;;;;;;;6.03;3.05;;;;;;;;;;5061259;28;20360;-77
2021/07/11 09:00:29;;;;;;;6.35;3.30;;;;;;;;;;5069359;28;20020;-76
2021/07/11 09:02:55;;;;;;;5.90;3.47;;;;;;;;;;5057213;28;20025;-77
2021/07/11 09:05:29;;;;;;;6.57;3.28;;;;;;;;;;5071377;28;20028;-77
2021/07/11 09:07:59;;;;;;;4.35;3.03;;;;;;;;;;5059514;28;20047;-77
2021/07/11 09:10:30;;;;;;;4.72;3.15;;;;;;;;;;5054020;28;20024;-77
2021/07/11 09:12:56;;;;;;;7.57;3.40;;;;;;;;;;5055032;28;20504;-76
2021/07/11 09:15:33;;;;;;;6.72;3.20;;;;;;;;;;5053975;28;20021;-77
2021/07/11 09:17:59;;;;;;;6.03;3.30;;;;;;;;;;5054055;28;20079;-77
2021/07/11 09:20:25;;;;;;;5.72;3.30;;;;;;;;;;5052480;28;20025;-76
2021/07/11 09:23:03;;;;;;;4.85;3.25;;;;;;;;;;5052535;28;20043;-76
2021/07/11 09:25:30;;;;;;;7.60;3.22;;;;;;;;;;5059348;28;20028;-77
2021/07/11 09:27:56;;;;;;;4.82;3.00;;;;;;;;;;5062901;28;20040;-77
2021/07/11 09:30:23;;;;;;;5.55;3.50;;;;;;;;;;5060309;28;20031;-76
2021/07/11 09:32:55;;;;;;;7.28;3.40;;;;;;;;;;5060488;28;20052;-76
2021/07/11 09:35:23;;;;;;;6.35;3.25;;;;;;;;;;5057727;28;20027;-76
2021/07/11 09:37:54;;;;;;;6.90;3.10;;;;;;;;;;5059432;28;20028;-77
2021/07/11 09:40:23;;;;;;;7.78;3.30;;;;;;;;;;5068169;28;20226;-77
2021/07/11 09:42:55;;;;;;;4.90;3.20;;;;;;;;;;5071561;28;20032;-77
2021/07/11 09:45:27;;;;;;;5.22;3.00;;;;;;;;;;5054277;28;20029;-77
2021/07/11 09:48:03;;;;;;;3.72;2.80;;;;;;;;;;5053596;28;20376;-76
2021/07/11 09:50:28;;;;;;;7.85;2.90;;;;;;;;;;5053467;28;20025;-74
2021/07/11 09:52:56;;;;;;;6.38;2.58;;;;;;;;;;5053851;28;20025;-72
2021/07/11 09:55:24;;;;;;;4.22;2.58;;;;;;;;;;5055057;28;20032;-72
2021/07/11 09:58:03;;;;;;;4.75;2.85;;;;;;;;;;5056314;28;20052;-72
2021/07/11 10:00:42;;;;;;;6.30;2.90;;;;;;;;;;5073173;28;20028;-73
2021/07/11 10:03:11;;;;;;;5.38;3.15;;;;;;;;;;5067029;28;20025;-72
2021/07/11 10:05:41;;;;;;;3.83;2.80;;;;;;;;;;5073418;28;20028;-72
2021/07/11 10:08:07;;;;;;;5.13;2.67;;;;;;;;;;5069295;28;20021;-72
2021/07/11 10:10:35;;;;;;;5.15;2.78;;;;;;;;;;5052280;28;20534;-72
2021/07/11 10:13:03;;;;;;;5.68;2.60;;;;;;;;;;5052526;28;20102;-72
2021/07/11 10:15:31;;;;;;;6.57;2.80;;;;;;;;;;5052324;28;20508;-72
2021/07/11 10:18:03;;;;;;;5.10;2.60;;;;;;;;;;5052163;28;20052;-72
2021/07/11 10:20:33;;;;;;;3.75;2.55;;;;;;;;;;5052217;28;20096;-73
2021/07/11 10:23:04;;;;;;;6.30;2.83;;;;;;;;;;5060408;28;20048;-72
2021/07/11 10:25:31;;;;;;;8.13;2.67;;;;;;;;;;5069707;28;20099;-71
2021/07/11 10:28:12;;;;;;;4.05;2.60;;;;;;;;;;5058741;28;20028;-72
2021/07/11 10:30:43;;;;;;;6.10;2.80;;;;;;;;;;5072652;28;20519;-73
2021/07/11 10:33:12;;;;;;;3.70;2.10;;;;;;;;;;5061119;28;20033;-72
2021/07/11 10:35:48;;;;;;;4.45;2.45;;;;;;;;;;5053973;28;20021;-72
2021/07/11 10:38:13;;;;;;;4.40;2.35;;;;;;;;;;5072171;28;20028;-72
2021/07/11 10:40:42;;;;;;;5.63;2.38;;;;;;;;;;5053920;28;20535;-72
2021/07/11 10:43:14;;;;;;;4.43;2.38;;;;;;;;;;5053616;28;20081;-73
2021/07/11 10:45:50;;;;;;;7.38;2.70;;;;;;;;;;5072569;28;20025;-73
2021/07/11 10:48:28;;;;;;;6.38;2.60;;;;;;;;;;5072262;28;20048;-72
2021/07/11 10:50:53;;;;;;;5.82;2.50;;;;;;;;;;5067726;28;20037;-73
2021/07/11 10:53:21;;;;;;;4.70;2.70;;;;;;;;;;5063855;28;20040;-72
2021/07/11 10:55:46;;;;;;;4.00;1.90;;;;;;;;;;5058252;28;20024;-72
2021/07/11 10:58:17;;;;;;;6.28;2.50;;;;;;;;;;5053372;28;20806;-72
2021/07/11 11:00:45;;;;;;;5.18;2.40;;;;;;;;;;5069144;28;20191;-73
2021/07/11 11:03:25;;;;;;;3.83;2.30;;;;;;;;;;5064802;28;20032;-73
2021/07/11 11:05:52;;;;;;;4.25;2.25;;;;;;;;;;5071538;28;20074;-73
2021/07/11 11:08:21;;;;;;;4.32;2.30;;;;;;;;;;5072057;28;20070;-73
2021/07/11 11:10:48;;;;;;;4.38;2.05;;;;;;;;;;5069277;28;20040;-72
2021/07/11 11:13:19;;;;;;;5.07;2.40;;;;;;;;;;5062805;28;20086;-73
2021/07/11 11:15:55;;;;;;;4.30;2.13;;;;;;;;;;5055487;28;20119;-72
2021/07/11 11:18:24;;;;;;;3.92;2.13;;;;;;;;;;5071500;28;20042;-72
2021/07/11 11:20:58;;;;;;;3.92;2.13;;;;;;;;;;5069952;28;20105;-72
2021/07/11 11:23:27;;;;;;;3.80;2.05;;;;;;;;;;5070034;28;20075;-72
2021/07/11 11:25:53;;;;;;;4.55;2.08;;;;;;;;;;5053213;28;20033;-72
2021/07/11 11:28:32;;;;;;;4.45;1.95;;;;;;;;;;5049443;28;20040;-72
2021/07/11 11:31:12;;;;;;;4.50;1.70;;;;;;;;;;5050603;28;20032;-72
2021/07/11 11:34:02;;;;;;;5.95;1.55;;;;;;;;;;5055055;28;20035;-73
2021/07/11 11:36:35;;;;;;;2.47;1.60;;;;;;;;;;5052030;28;20496;-73
2021/07/11 11:39:20;;;;;;;3.50;1.70;;;;;;;;;;5052120;28;20056;-74
2021/07/11 11:41:46;;;;;;;3.92;2.00;;;;;;;;;;5051490;28;20090;-73
2021/07/11 11:44:17;;;;;;;4.82;1.55;;;;;;;;;;5051779;28;20078;-72
2021/07/11 11:46:44;;;;;;;4.55;1.80;;;;;;;;;;5051793;28;20060;-73
2021/07/11 11:49:13;;;;;;;5.05;1.70;;;;;;;;;;5052429;28;20028;-72
2021/07/11 11:51:51;;;;;;;5.47;2.05;;;;;;;;;;5058291;28;20021;-72
2021/07/11 11:54:42;;;;;;;5.63;2.00;;;;;;;;;;5075628;28;20652;-71
2021/07/11 11:57:09;;;;;;;4.93;2.10;;;;;;;;;;5075221;28;20024;-74
2021/07/11 11:59:36;;;;;;;4.13;2.00;;;;;;;;;;5075258;28;20028;-73
2021/07/11 12:02:06;;;;;;;3.67;1.60;;;;;;;;;;5075975;28;20028;-73
2021/07/11 12:04:32;;;;;;;4.20;1.70;;;;;;;;;;5064673;28;20041;-72
2021/07/11 12:06:59;;;;;;;3.65;1.83;;;;;;;;;;5067914;28;20017;-73
2021/07/11 12:09:28;;;;;;;2.47;1.50;;;;;;;;;;5074918;28;20028;-73
2021/07/11 12:11:59;;;;;;;2.55;1.50;;;;;;;;;;5075105;28;20032;-74
2021/07/11 12:14:25;;;;;;;3.08;1.55;;;;;;;;;;5072867;28;20050;-72
2021/07/11 12:16:59;;;;;;;3.05;1.35;;;;;;;;;;5067249;28;20052;-73
2021/07/11 12:19:26;;;;;;;3.50;1.38;;;;;;;;;;5067264;28;20411;-72
2021/07/11 12:21:53;;;;;;;3.67;1.50;;;;;;;;;;5070182;28;20460;-72
2021/07/11 12:24:26;;;;;;;6.03;1.58;;;;;;;;;;5069188;28;20032;-73
2021/07/11 12:27:01;;;;;;;3.35;1.48;;;;;;;;;;5058774;28;20021;-74
2021/07/11 12:29:33;;;;;;;3.35;1.55;;;;;;;;;;5062249;28;20066;-73
2021/07/11 12:32:00;;;;;;;5.00;1.60;;;;;;;;;;5074250;28;20020;-73
2021/07/11 12:34:26;;;;;;;3.40;1.40;;;;;;;;;;5075145;28;20024;-73
2021/07/11 12:36:54;;;;;;;4.65;1.30;;;;;;;;;;5073948;28;20035;-73
2021/07/11 12:39:24;;;;;;;3.50;1.40;;;;;;;;;;5075004;28;20056;-74
2021/07/11 12:41:50;;;;;;;7.45;2.00;;;;;;;;;;5068936;28;20031;-72
2021/07/11 12:44:17;;;;;;;2.70;1.48;;;;;;;;;;5061305;28;20403;-80
2021/07/11 12:46:44;;;;;;;2.50;1.60;;;;;;;;;;5059629;28;20191;-74
2021/07/11 12:49:13;;;;;;;2.83;1.40;;;;;;;;;;5066958;28;20114;-74
2021/07/11 12:51:43;;;;;;;2.90;1.48;;;;;;;;;;5054842;28;20055;-73
2021/07/11 12:54:17;;;;;;;4.18;1.20;;;;;;;;;;5054317;28;20033;-74
2021/07/11 12:56:58;;;;;;;2.92;1.40;;;;;;;;;;5059735;28;20029;-74
2021/07/11 12:59:38;;;;;;;2.95;1.45;;;;;;;;;;5058472;28;20021;-72
2021/07/11 13:02:18;;;;;;;2.95;1.30;;;;;;;;;;5053407;28;20047;-74
2021/07/11 13:04:52;;;;;;;3.13;1.30;;;;;;;;;;5070798;28;20092;-73
2021/07/11 13:07:21;;;;;;;3.15;1.35;;;;;;;;;;5073213;28;20037;-73
2021/07/11 13:09:46;;;;;;;3.47;1.50;;;;;;;;;;5072082;28;20031;-74
2021/07/11 13:12:12;;;;;;;3.20;1.50;;;;;;;;;;5065088;28;20037;-74
2021/07/11 13:14:50;;;;;;;3.13;1.42;;;;;;;;;;5053455;28;20070;-72
2021/07/11 13:17:15;;;;;;;1.92;1.20;;;;;;;;;;5069139;28;20039;-73
2021/07/11 13:19:41;;;;;;;4.10;1.55;;;;;;;;;;5070411;28;20067;-72
2021/07/11 13:22:06;;;;;;;4.05;1.48;;;;;;;;;;5072379;28;20021;-72
2021/07/11 13:24:32;;;;;;;3.92;1.30;;;;;;;;;;5060551;28;20078;-72
2021/07/11 13:26:57;;;;;;;3.35;1.30;;;;;;;;;;5072475;28;20088;-71
2021/07/11 13:29:23;;;;;;;4.78;1.48;;;;;;;;;;5072590;28;20078;-71
2021/07/11 13:31:48;;;;;;;2.92;1.50;;;;;;;;;;5058733;28;20059;-71
2021/07/11 13:34:14;;;;;;;4.82;1.48;;;;;;;;;;5052490;28;20028;-72
2021/07/11 13:36:39;;;;;;;2.50;1.40;;;;;;;;;;5052556;28;20465;-72
2021/07/11 13:39:06;;;;;;;3.28;1.40;;;;;;;;;;5047294;28;20066;-72
2021/07/11 13:41:31;;;;;;;3.42;1.30;;;;;;;;;;5071571;28;20032;-72
2021/07/11 13:43:57;;;;;;;4.35;1.35;;;;;;;;;;5068836;28;20023;-72
2021/07/11 13:46:23;;;;;;;3.03;1.48;;;;;;;;;;5052366;28;20028;-72
2021/07/11 13:48:49;;;;;;;2.70;1.35;;;;;;;;;;5052091;28;20025;-71
2021/07/11 13:51:15;;;;;;;4.07;1.52;;;;;;;;;;5052263;28;20483;-72
2021/07/11 13:53:40;;;;;;;3.20;1.40;;;;;;;;;;5067021;28;20479;-72
2021/07/11 13:56:06;;;;;;;2.47;1.48;;;;;;;;;;5070584;28;20016;-71
2021/07/11 13:58:32;;;;;;;2.47;1.40;;;;;;;;;;5070453;28;20383;-72
2021/07/11 14:00:57;;;;;;;3.78;1.50;;;;;;;;;;5070256;28;20033;-72
2021/07/11 14:03:23;;;;;;;5.28;1.70;;;;;;;;;;5071766;28;20044;-72
2021/07/11 14:05:48;;;;;;;3.42;1.70;;;;;;;;;;5055403;28;20039;-71
2021/07/11 14:08:13;;;;;;;2.13;1.40;;;;;;;;;;5063905;28;20028;-72
2021/07/11 14:10:39;;;;;;;3.50;1.40;;;;;;;;;;5059620;28;20530;-72
2021/07/11 14:13:05;;;;;;;4.72;1.90;;;;;;;;;;5062856;28;20037;-71
2021/07/11 14:15:30;;;;;;;3.60;1.73;;;;;;;;;;5039690;28;20469;-72
2021/07/11 14:17:56;;;;;;;7.63;1.98;;;;;;;;;;5066419;28;20483;-71
2021/07/11 14:20:22;;;;;;;5.53;1.70;;;;;;;;;;5071497;28;20025;-71
2021/07/11 14:22:49;;;;;;;3.22;1.50;;;;;;;;;;5069974;28;20384;-72
2021/07/11 14:25:16;;;;;;;4.03;1.33;;;;;;;;;;5054631;28;20064;-72
2021/07/11 14:27:41;;;;;;;2.88;1.50;;;;;;;;;;5049324;28;20112;-71
2021/07/11 14:30:10;;;;;;;3.70;1.50;;;;;;;;;;5049570;28;20536;-72
2021/07/11 14:32:35;;;;;;;2.97;1.45;;;;;;;;;;5049549;28;20021;-72
2021/07/11 14:35:01;;;;;;;4.30;1.60;;;;;;;;;;5049668;28;20155;-72
2021/07/11 14:37:28;;;;;;;1.95;1.40;;;;;;;;;;5051147;28;20096;-72
2021/07/11 14:39:54;;;;;;;6.13;1.42;;;;;;;;;;5051208;28;20032;-72
2021/07/11 14:42:19;;;;;;;2.38;1.45;;;;;;;;;;5051093;28;20453;-72
2021/07/11 14:44:45;;;;;;;3.47;1.60;;;;;;;;;;5049277;28;20476;-72
2021/07/11 14:47:11;;;;;;;3.58;1.92;;;;;;;;;;5031797;28;20060;-72